Weather reports worldwide

Advertisment
Vejer De La Frontera, Spain (8457): temperature & dewpoint: 05.12.2019 10:00:00 - 11.12.2019 10:00:00 (CET)Vejer De La Frontera, Spain (8457): wind speed & gusts: 05.12.2019 10:00:00 - 11.12.2019 10:00:00 (CET)Vejer De La Frontera, Spain (8457): wind direction: 05.12.2019 10:00:00 - 11.12.2019 10:00:00 (CET)Vejer De La Frontera, Spain (8457): reduced air pressure: 05.12.2019 10:00:00 - 11.12.2019 10:00:00 (CET)Vejer De La Frontera, Spain (8457): precipitation: 05.12.2019 10:00:00 - 11.12.2019 10:00:00 (CET)
Date & Time tt [°C] td [°C] ff [km/h] ff [kn] fx [km/h] fx [kn] dd ppp [hPa] rr [mm]
11.12.2019 10:00:00 - - - - - - - - -
11.12.2019 09:00:00 12,4 9,9 13 7 23 12 W 1027,1 0,0
11.12.2019 08:00:00 13,1 11,1 11 6 22 12 W 1026,5 0,0
11.12.2019 07:00:00 13,5 11,7 13 7 20 11 WSW 1026,2 -
11.12.2019 06:00:00 13,4 11,8 11 6 19 10 WSW 1025,7 0,0
11.12.2019 05:00:00 13,3 12,0 9 5 14 8 WSW 1025,9 0,0
11.12.2019 04:00:00 12,6 11,3 8 5 12 6 W 1026,1 0,0
11.12.2019 03:00:00 12,4 11,0 5 3 11 6 W 1026,2 0,0
11.12.2019 02:00:00 13,0 11,4 6 4 18 10 W 1026,5 0,0
11.12.2019 01:00:00 13,2 11,4 10 5 14 8 W 1026,9 -
11.12.2019 00:00:00 13,1 10,8 8 5 17 9 W 1026,7 0,0
10.12.2019 23:00:00 13,2 9,3 10 6 15 8 WNW 1026,9 0,0
10.12.2019 22:00:00 13,0 8,7 7 4 16 9 WNW 1026,7 0,0
10.12.2019 21:00:00 12,4 10,3 10 5 15 8 W 1027,2 0,0
10.12.2019 20:00:00 12,9 10,8 8 4 14 8 W 1027,0 0,0
10.12.2019 19:00:00 12,5 10,0 9 5 15 8 W 1026,8 -
10.12.2019 18:00:00 14,1 9,7 4 2 12 7 W 1026,2 0,0
10.12.2019 17:00:00 15,9 10,2 6 3 13 7 W 1026,0 0,0
10.12.2019 16:00:00 16,9 10,8 9 5 16 8 W 1026,1 0,0
10.12.2019 15:00:00 17,4 11,2 9 5 16 9 W 1026,3 0,0
10.12.2019 14:00:00 17,2 11,2 5 3 15 8 WSW 1027,1 0,0
10.12.2019 13:00:00 15,4 10,2 6 3 14 8 SSW 1028,0 -
10.12.2019 12:00:00 14,5 11,1 7 4 15 8 WSW 1028,8 0,0
10.12.2019 11:00:00 13,5 11,0 6 4 13 7 S 1028,7 0,0
10.12.2019 10:00:00 11,2 9,8 3 2 9 5 S 1028,3 0,0
10.12.2019 09:00:00 9,7 8,5 3 2 5 3 SSE 1027,9 0,0
10.12.2019 08:00:00 9,5 8,0 0 0 4 2 S 1027,8 0,0
10.12.2019 07:00:00 9,9 8,0 0 0 5 3 N 1027,7 -
10.12.2019 06:00:00 10,3 8,5 4 2 11 6 WNW 1027,5 0,0
10.12.2019 05:00:00 11,3 9,2 5 3 15 8 NNW 1027,6 0,0
10.12.2019 04:00:00 11,7 9,6 6 4 17 9 NW 1028,2 0,0
10.12.2019 03:00:00 12,1 9,7 5 3 15 8 NW 1028,1 0,0
10.12.2019 02:00:00 12,3 9,7 7 4 14 7 NW 1028,6 0,0
10.12.2019 01:00:00 12,9 9,9 5 3 14 8 NW 1028,9 -
10.12.2019 00:00:00 13,2 10,0 5 3 17 9 NW 1029,0 0,0
09.12.2019 23:00:00 12,7 10,4 9 5 18 10 WNW 1029,1 0,0
09.12.2019 22:00:00 13,5 9,9 8 5 16 8 WNW 1029,1 0,0
09.12.2019 21:00:00 13,9 10,2 5 3 12 6 NW 1029,0 0,0
09.12.2019 20:00:00 14,8 11,0 4 2 15 8 NNW 1028,9 0,0
09.12.2019 19:00:00 15,5 12,6 6 3 17 9 NW 1028,7 -
09.12.2019 18:00:00 15,4 12,3 8 4 21 12 WNW 1028,3 0,0
09.12.2019 17:00:00 16,8 13,2 9 5 27 15 WNW 1028,3 0,0
09.12.2019 16:00:00 17,3 13,3 10 5 24 13 W 1028,2 0,0
09.12.2019 15:00:00 17,3 13,1 6 3 16 9 W 1028,5 0,0
09.12.2019 14:00:00 17,9 12,1 5 3 15 8 NW 1029,0 0,0
09.12.2019 13:00:00 17,9 13,0 5 3 18 10 N 1029,6 -
09.12.2019 12:00:00 17,3 13,3 6 3 19 10 N 1030,3 0,0
09.12.2019 11:00:00 16,1 12,6 4 2 16 9 N 1030,6 0,0
09.12.2019 10:00:00 15,0 11,3 6 3 13 7 N 1030,1 0,0
09.12.2019 09:00:00 14,0 10,8 5 3 10 5 NW 1029,6 0,0
09.12.2019 08:00:00 13,7 10,9 6 4 12 6 WNW 1029,0 0,0
09.12.2019 07:00:00 13,3 12,0 7 4 15 8 WNW 1028,7 -
09.12.2019 06:00:00 13,7 12,4 8 5 13 7 WNW 1028,4 0,0
09.12.2019 05:00:00 13,7 12,2 8 4 12 7 W 1028,2 0,0
09.12.2019 04:00:00 13,9 12,1 8 4 16 8 W 1028,4 0,0
09.12.2019 03:00:00 13,6 11,7 8 5 12 6 W 1028,3 0,0
09.12.2019 02:00:00 13,6 11,3 8 4 13 7 W 1028,7 0,0
09.12.2019 01:00:00 14,1 11,1 8 4 15 8 W 1028,9 -
09.12.2019 00:00:00 13,7 10,5 8 5 14 8 WNW 1029,0 0,0
08.12.2019 23:00:00 12,9 10,4 7 4 16 9 W 1028,7 0,0
08.12.2019 22:00:00 12,9 10,8 10 5 16 9 W 1028,5 0,0
08.12.2019 21:00:00 12,9 10,8 10 5 16 8 W 1028,3 0,0
08.12.2019 20:00:00 12,9 10,8 10 5 22 12 WNW 1028,1 0,0
08.12.2019 19:00:00 12,8 10,3 15 8 24 13 W 1027,4 -
08.12.2019 18:00:00 13,8 10,4 13 7 23 12 W 1027,0 0,0
08.12.2019 17:00:00 14,9 10,6 14 8 23 12 W 1026,3 0,0
08.12.2019 16:00:00 17,3 11,3 13 7 25 13 W 1026,3 0,0
08.12.2019 15:00:00 18,0 10,9 14 7 24 13 W 1026,1 0,0
08.12.2019 14:00:00 18,2 11,6 13 7 22 12 W 1026,5 0,0
08.12.2019 13:00:00 17,5 10,9 9 5 18 10 WSW 1027,3 -
08.12.2019 12:00:00 16,1 11,2 8 5 16 9 WSW 1027,9 0,0
08.12.2019 11:00:00 14,7 10,8 10 5 26 14 WSW 1028,0 0,0
08.12.2019 10:00:00 13,7 9,2 5 3 10 5 WSW 1027,4 0,0
08.12.2019 09:00:00 13,3 7,7 3 2 5 3 WSW 1026,9 0,0
08.12.2019 08:00:00 13,2 7,8 3 1 7 4 WNW 1026,4 0,0
08.12.2019 07:00:00 13,3 8,5 2 1 4 2 W 1025,8 -
08.12.2019 06:00:00 13,0 9,3 1 0 4 2 NE 1025,6 0,0
08.12.2019 05:00:00 13,1 8,8 2 1 5 3 N 1025,7 0,0
08.12.2019 04:00:00 13,0 10,2 2 1 5 3 N 1025,8 0,0
08.12.2019 03:00:00 13,6 10,0 1 1 11 6 NW 1025,9 0,0
08.12.2019 02:00:00 13,6 10,4 3 1 6 3 WNW 1025,8 0,0
08.12.2019 01:00:00 13,1 10,6 1 0 5 3 E 1026,0 -
08.12.2019 00:00:00 13,7 10,3 1 0 3 2 E 1026,0 0,0
07.12.2019 23:00:00 14,2 10,4 0 0 3 2 N 1025,9 0,0
07.12.2019 22:00:00 14,6 10,6 1 1 3 2 ENE 1025,5 0,0
07.12.2019 21:00:00 14,8 10,4 2 1 4 2 E 1025,0 0,0
07.12.2019 20:00:00 15,4 10,8 0 0 11 6 N 1024,6 0,0
07.12.2019 19:00:00 15,6 11,0 1 0 12 6 W 1024,1 -
07.12.2019 18:00:00 17,4 11,7 4 2 9 5 W 1023,4 0,0
07.12.2019 17:00:00 18,8 10,6 4 2 14 8 E 1022,7 0,0
07.12.2019 16:00:00 19,8 11,0 5 3 18 10 ESE 1022,2 0,0
07.12.2019 15:00:00 20,1 11,0 8 4 22 12 ESE 1022,0 0,0
07.12.2019 14:00:00 19,3 11,1 9 5 21 11 E 1022,3 0,0
07.12.2019 13:00:00 18,5 11,3 8 4 22 12 E 1022,8 -
07.12.2019 12:00:00 17,0 10,6 7 4 16 8 ENE 1023,7 0,0
07.12.2019 11:00:00 15,8 10,8 7 4 18 10 ENE 1023,6 0,0
07.12.2019 10:00:00 14,3 10,5 9 5 21 11 ENE 1022,6 0,0
07.12.2019 09:00:00 13,2 10,4 8 4 16 9 E 1022,2 0,0
07.12.2019 08:00:00 13,1 10,3 8 4 17 9 ENE 1021,9 0,0
07.12.2019 07:00:00 13,1 10,3 8 5 18 10 ENE 1021,4 -
07.12.2019 06:00:00 13,0 10,4 9 5 19 11 ENE 1021,1 0,0
07.12.2019 05:00:00 13,3 10,6 8 4 19 11 ENE 1020,8 0,0
07.12.2019 04:00:00 13,3 10,6 9 5 21 11 ENE 1020,9 0,0
07.12.2019 03:00:00 13,7 10,5 10 6 27 15 E 1020,7 0,0
07.12.2019 02:00:00 13,9 10,5 11 6 38 21 E 1020,8 0,0
07.12.2019 01:00:00 14,1 10,5 13 7 37 20 E 1020,4 -
07.12.2019 00:00:00 14,1 10,3 13 7 36 19 E 1020,6 0,0
06.12.2019 23:00:00 14,1 10,3 14 7 32 17 E 1020,4 0,0
06.12.2019 22:00:00 14,0 10,2 11 6 27 14 E 1020,2 0,0
06.12.2019 21:00:00 14,3 9,9 12 7 30 16 E 1020,2 0,0
06.12.2019 20:00:00 14,2 10,0 13 7 36 19 E 1019,8 0,0
06.12.2019 19:00:00 14,6 10,4 13 7 30 16 E 1019,3 -
06.12.2019 18:00:00 15,6 10,4 10 5 29 16 E 1018,7 0,0
06.12.2019 17:00:00 17,0 10,2 10 6 29 16 E 1018,3 0,0
06.12.2019 16:00:00 16,9 10,5 14 8 31 17 E 1017,8 0,0
06.12.2019 15:00:00 17,4 10,8 14 7 41 22 E 1017,7 0,0
06.12.2019 14:00:00 18,0 10,6 19 10 44 24 E 1017,5 0,0
06.12.2019 13:00:00 17,9 11,2 17 9 37 20 E 1018,1 -
06.12.2019 12:00:00 15,8 10,8 14 8 39 21 E 1019,4 0,0
06.12.2019 11:00:00 15,8 10,8 17 9 41 22 E 1018,9 0,0
06.12.2019 10:00:00 14,8 10,4 16 9 36 20 E 1018,5 0,0
06.12.2019 09:00:00 14,3 9,9 17 9 41 22 E 1017,6 0,0
06.12.2019 08:00:00 14,2 9,4 14 8 35 19 E 1016,8 0,0
06.12.2019 07:00:00 14,0 9,7 13 7 29 16 E 1016,3 -
06.12.2019 06:00:00 13,9 9,9 11 6 40 21 E 1016,1 0,0
06.12.2019 05:00:00 14,0 9,7 14 8 35 19 E 1015,8 0,0
06.12.2019 04:00:00 13,9 9,6 13 7 35 19 E 1015,4 0,0
06.12.2019 03:00:00 13,6 9,8 9 5 25 14 E 1015,4 0,0
06.12.2019 02:00:00 13,7 9,7 10 5 33 18 E 1015,7 0,0
06.12.2019 01:00:00 13,6 10,2 16 8 39 21 E 1015,6 -
06.12.2019 00:00:00 13,8 10,0 16 8 35 19 E 1015,7 0,0
05.12.2019 23:00:00 13,6 10,2 11 6 34 18 E 1015,6 0,0
05.12.2019 22:00:00 13,9 9,6 12 6 32 17 E 1015,3 0,0
05.12.2019 21:00:00 13,4 9,7 8 4 19 10 ENE 1015,3 0,0
05.12.2019 20:00:00 13,4 8,9 9 5 20 11 ENE 1015,0 0,0
05.12.2019 19:00:00 13,6 7,4 8 5 19 10 ENE 1014,2 -
05.12.2019 18:00:00 14,6 8,8 9 5 23 12 E 1013,7 0,0
05.12.2019 17:00:00 15,5 9,2 10 5 27 15 E 1013,2 0,0
05.12.2019 16:00:00 15,9 9,3 9 5 27 15 E 1012,9 0,0
05.12.2019 15:00:00 15,4 8,7 8 5 22 12 E 1012,8 0,0
05.12.2019 14:00:00 17,0 8,7 8 5 19 10 E 1012,9 0,0
05.12.2019 13:00:00 15,6 6,8 5 3 13 7 ENE 1013,3 -
05.12.2019 12:00:00 14,0 4,6 6 4 13 7 ENE 1014,3 0,0
05.12.2019 11:00:00 13,0 7,7 5 3 16 9 NE 1014,3 0,0
05.12.2019 10:00:00 12,2 4,1 8 4 12 7 SE 1013,0 0,0

tt = temperature
td = dewpoint
ff = wind speed
fx = gusts
dd = wind direction
ppp = reduced air pressure
rr = precipitation

Next stations